createdAt,value
2023-01-19T00:00:54.346Z,100429.29
2023-01-19T00:03:21.968Z,100431.31
2023-01-19T00:05:49.325Z,100436.38
2023-01-19T00:08:17.018Z,100446.89
2023-01-19T00:10:47.074Z,100455.77
2023-01-19T00:13:15.239Z,100459.66
2023-01-19T00:15:42.269Z,100472.04
2023-01-19T00:18:10.925Z,100478.91
2023-01-19T00:20:42.149Z,100483.40
2023-01-19T00:23:09.779Z,100488.73
2023-01-19T00:25:42.859Z,100489.67
2023-01-19T00:28:10.614Z,100494.76
2023-01-19T00:30:39.395Z,100493.27
2023-01-19T00:33:06.435Z,100491.32
2023-01-19T00:35:34.928Z,100490.94
2023-01-19T00:38:03.108Z,100496.27
2023-01-19T00:40:30.121Z,100496.43
2023-01-19T00:42:57.215Z,100492.90
2023-01-19T00:45:24.920Z,100497.33
2023-01-19T00:47:57.485Z,100495.38
2023-01-19T00:50:26.121Z,100497.18
2023-01-19T00:52:55.106Z,100500.34
2023-01-19T00:55:23.182Z,100499.65
2023-01-19T00:57:50.348Z,100506.00
2023-01-19T01:00:20.057Z,100502.08
2023-01-19T01:02:48.294Z,100505.42
2023-01-19T01:05:15.683Z,100503.42
2023-01-19T01:07:45.784Z,100498.23
2023-01-19T01:10:19.925Z,100494.48
2023-01-19T01:12:56.690Z,100488.62
2023-01-19T01:15:34.889Z,100485.51
2023-01-19T01:18:02.037Z,100485.03
2023-01-19T01:20:30.731Z,100483.92
2023-01-19T01:22:58.467Z,100483.59
2023-01-19T01:25:28.619Z,100485.08
2023-01-19T01:27:55.704Z,100474.78
2023-01-19T01:30:23.972Z,100472.40
2023-01-19T01:32:50.990Z,100477.95
2023-01-19T01:35:18.221Z,100479.48
2023-01-19T01:37:45.326Z,100482.81
2023-01-19T01:40:15.104Z,100484.02
2023-01-19T01:42:43.225Z,100485.36
2023-01-19T01:45:31.211Z,100485.67
2023-01-19T01:48:02.211Z,100492.48
2023-01-19T01:50:33.615Z,100502.79
2023-01-19T01:53:12.369Z,100507.91
2023-01-19T01:55:47.012Z,100511.55
2023-01-19T01:58:16.630Z,100517.15
2023-01-19T02:01:02.314Z,100510.02
2023-01-19T02:03:29.624Z,100509.89
2023-01-19T02:06:00.257Z,100513.67
2023-01-19T02:08:55.599Z,100510.39
2023-01-19T02:11:42.589Z,100509.30
2023-01-19T02:14:09.519Z,100512.04
2023-01-19T02:16:37.976Z,100515.17
2023-01-19T02:19:07.510Z,100515.84
2023-01-19T02:21:59.929Z,100517.80
2023-01-19T02:24:27.786Z,100514.95
2023-01-19T02:26:56.302Z,100511.67
2023-01-19T02:29:25.745Z,100503.48
2023-01-19T02:31:54.052Z,100511.84
2023-01-19T02:34:22.810Z,100505.98
2023-01-19T02:36:54.716Z,100501.79
2023-01-19T02:39:34.425Z,100503.70
2023-01-19T02:42:05.625Z,100502.91
2023-01-19T02:44:34.343Z,100495.83
2023-01-19T02:47:01.303Z,100492.34
2023-01-19T02:49:30.263Z,100495.77
2023-01-19T02:51:58.445Z,100500.21
2023-01-19T02:54:37.645Z,100500.31
2023-01-19T02:57:40.077Z,100502.27
2023-01-19T03:00:33.076Z,100504.02
2023-01-19T03:03:21.219Z,100497.09
2023-01-19T03:06:06.573Z,100490.38
2023-01-19T03:08:42.514Z,100486.00
2023-01-19T03:11:13.143Z,100478.76
2023-01-19T03:13:57.889Z,100480.45
2023-01-19T03:16:48.854Z,100484.84
2023-01-19T03:19:23.389Z,100491.53
2023-01-19T03:21:55.234Z,100491.65
2023-01-19T03:24:25.202Z,100489.95
2023-01-19T03:27:01.257Z,100496.77
2023-01-19T03:29:37.510Z,100495.45
2023-01-19T03:32:09.621Z,100490.80
2023-01-19T03:34:39.238Z,100488.67
2023-01-19T03:37:08.752Z,100490.59
2023-01-19T03:39:35.864Z,100488.32
2023-01-19T03:42:08.637Z,100491.75
2023-01-19T03:44:37.911Z,100492.64
2023-01-19T03:47:07.444Z,100500.41
2023-01-19T03:49:36.560Z,100499.20
2023-01-19T03:52:03.850Z,100494.66
2023-01-19T03:54:32.310Z,100493.02
2023-01-19T03:56:59.844Z,100504.54
2023-01-19T03:59:27.082Z,100515.15
2023-01-19T04:01:54.087Z,100519.96
2023-01-19T04:04:21.176Z,100522.50
2023-01-19T04:06:48.230Z,100531.31
2023-01-19T04:09:15.278Z,100530.02
2023-01-19T04:11:42.825Z,100529.78
2023-01-19T04:14:09.906Z,100532.16
2023-01-19T04:16:37.035Z,100532.00
2023-01-19T04:19:04.114Z,100528.45
2023-01-19T04:21:31.121Z,100528.50
2023-01-19T04:23:59.305Z,100527.02
2023-01-19T04:26:26.335Z,100533.41
2023-01-19T04:28:53.387Z,100539.48
2023-01-19T04:31:21.192Z,100545.23
2023-01-19T04:33:48.180Z,100550.44
2023-01-19T04:36:15.248Z,100554.93
2023-01-19T04:38:42.395Z,100555.88
2023-01-19T04:41:09.442Z,100552.82
2023-01-19T04:43:36.383Z,100554.45
2023-01-19T04:46:03.805Z,100549.73
2023-01-19T04:48:31.099Z,100554.71
2023-01-19T04:50:58.036Z,100559.45
2023-01-19T04:53:25.093Z,100558.61
2023-01-19T04:55:55.731Z,100553.85
2023-01-19T04:58:22.884Z,100552.11
2023-01-19T05:00:51.500Z,100554.44
2023-01-19T05:03:19.606Z,100553.85
2023-01-19T05:05:46.843Z,100561.72
2023-01-19T05:08:13.929Z,100560.08
2023-01-19T05:10:40.981Z,100554.11
2023-01-19T05:13:08.030Z,100555.80
2023-01-19T05:15:35.276Z,100555.17
2023-01-19T05:18:02.318Z,100560.29
2023-01-19T05:20:29.261Z,100566.99
2023-01-19T05:22:56.312Z,100570.15
2023-01-19T05:25:23.296Z,100577.91
2023-01-19T05:27:50.306Z,100581.19
2023-01-19T05:30:17.900Z,100584.89
2023-01-19T05:32:44.957Z,100591.70
2023-01-19T05:35:13.881Z,100597.52
2023-01-19T05:37:41.261Z,100602.21
2023-01-19T05:40:09.833Z,100608.02
2023-01-19T05:42:37.714Z,100618.90
2023-01-19T05:45:05.739Z,100624.88
2023-01-19T05:47:33.031Z,100623.87
2023-01-19T05:50:00.283Z,100614.83
2023-01-19T05:52:27.542Z,100617.73
2023-01-19T05:54:55.547Z,100621.68
2023-01-19T05:57:23.692Z,100623.22
2023-01-19T05:59:51.136Z,100627.44
2023-01-19T06:02:18.422Z,100633.62
2023-01-19T06:04:45.549Z,100638.33
2023-01-19T06:07:12.799Z,100637.52
2023-01-19T06:09:39.952Z,100634.61
2023-01-19T06:12:07.298Z,100632.92
2023-01-19T06:14:34.954Z,100629.33
2023-01-19T06:17:03.517Z,100631.86
2023-01-19T06:19:31.371Z,100627.33
2023-01-19T06:22:02.566Z,100628.55
2023-01-19T06:24:32.737Z,100634.13
2023-01-19T06:27:04.317Z,100632.92
2023-01-19T06:29:34.640Z,100630.48
2023-01-19T06:32:05.925Z,100630.30
2023-01-19T06:34:36.927Z,100637.95
2023-01-19T06:37:06.778Z,100639.17
2023-01-19T06:39:35.258Z,100641.03
2023-01-19T06:42:04.598Z,100641.88
2023-01-19T06:44:34.567Z,100647.11
2023-01-19T06:47:15.518Z,100648.92
2023-01-19T06:49:51.900Z,100645.62
2023-01-19T06:52:23.846Z,100647.54
2023-01-19T06:54:54.744Z,100650.30
2023-01-19T06:57:28.132Z,100650.20
2023-01-19T06:59:56.525Z,100650.48
2023-01-19T07:02:26.947Z,100647.84
2023-01-19T07:04:56.810Z,100653.39
2023-01-19T07:07:24.071Z,100654.09
2023-01-19T07:09:53.670Z,100650.08
2023-01-19T07:12:22.732Z,100650.30
2023-01-19T07:14:49.936Z,100648.08
2023-01-19T07:17:16.888Z,100648.88
2023-01-19T07:19:43.804Z,100647.46
2023-01-19T07:22:10.944Z,100648.20
2023-01-19T07:24:38.384Z,100645.29
2023-01-19T07:27:05.830Z,100644.60
2023-01-19T07:29:32.970Z,100647.50
2023-01-19T07:31:59.982Z,100648.88
2023-01-19T07:34:26.886Z,100652.20
2023-01-19T07:36:53.950Z,100658.61
2023-01-19T07:39:21.289Z,100665.70
2023-01-19T07:41:49.123Z,100676.38
2023-01-19T07:44:16.164Z,100677.67
2023-01-19T07:46:43.546Z,100676.89
2023-01-19T07:49:10.711Z,100688.21
2023-01-19T07:51:37.629Z,100693.28
2023-01-19T07:54:05.107Z,100704.53
2023-01-19T07:56:34.088Z,100701.58
2023-01-19T07:59:01.704Z,100693.02
2023-01-19T08:01:29.871Z,100683.83
2023-01-19T08:03:56.932Z,100687.36
2023-01-19T08:06:27.920Z,100683.89
2023-01-19T08:08:54.867Z,100653.99
2023-01-19T08:11:21.756Z,100643.20
2023-01-19T08:13:48.754Z,100664.02
2023-01-19T08:16:15.697Z,100676.39
2023-01-19T08:18:43.072Z,100688.13
2023-01-19T08:21:10.112Z,100696.48
2023-01-19T08:23:37.356Z,100698.35
2023-01-19T08:26:24.369Z,100706.16
2023-01-19T08:28:51.992Z,100707.67
2023-01-19T08:31:22.425Z,100708.20
2023-01-19T08:33:50.883Z,100707.83
2023-01-19T08:36:18.097Z,100726.22
2023-01-19T08:38:46.375Z,100725.91
2023-01-19T08:41:14.031Z,100724.29
2023-01-19T08:43:40.959Z,100730.77
2023-01-19T08:46:07.993Z,100731.89
2023-01-19T08:48:34.934Z,100741.20
2023-01-19T08:51:01.946Z,100754.09
2023-01-19T08:53:28.918Z,100746.48
2023-01-19T08:55:57.860Z,100740.57
2023-01-19T08:58:25.003Z,100734.66
2023-01-19T09:00:52.905Z,100740.77
2023-01-19T09:03:22.900Z,100740.58
2023-01-19T09:05:50.614Z,100738.50
2023-01-19T09:08:17.700Z,100736.70
2023-01-19T09:10:49.839Z,100734.27
2023-01-19T09:13:18.682Z,100731.30
2023-01-19T09:15:45.801Z,100722.22
2023-01-19T09:18:19.328Z,100714.49
2023-01-19T09:20:49.194Z,100718.42
2023-01-19T09:23:20.360Z,100730.42
2023-01-19T09:25:48.450Z,100737.40
2023-01-19T09:28:17.862Z,100737.34
2023-01-19T09:30:45.048Z,100733.65
2023-01-19T09:33:17.428Z,100729.38
2023-01-19T09:35:46.602Z,100724.62
2023-01-19T09:38:15.501Z,100723.66
2023-01-19T09:40:50.286Z,100727.58
2023-01-19T09:43:35.601Z,100730.97
2023-01-19T09:46:09.414Z,100732.49
2023-01-19T09:48:53.877Z,100729.95
2023-01-19T09:51:24.235Z,100727.15
2023-01-19T09:53:55.765Z,100731.48
2023-01-19T09:56:24.143Z,100737.54
2023-01-19T09:58:51.923Z,100739.75
2023-01-19T10:02:00.559Z,100742.08
2023-01-19T10:04:32.302Z,100745.11
2023-01-19T10:07:09.225Z,100748.27
2023-01-19T10:09:41.938Z,100750.33
2023-01-19T10:12:19.848Z,100754.55
2023-01-19T10:14:59.685Z,100760.42
2023-01-19T10:17:54.019Z,100767.52
2023-01-19T10:20:28.501Z,100765.93
2023-01-19T10:22:58.942Z,100767.39
2023-01-19T10:25:27.157Z,100766.77
2023-01-19T10:27:54.165Z,100766.96
2023-01-19T10:30:28.313Z,100763.86
2023-01-19T10:32:55.431Z,100758.42
2023-01-19T10:35:25.333Z,100751.23
2023-01-19T10:37:56.474Z,100744.61
2023-01-19T10:40:36.805Z,100743.63
2023-01-19T10:43:35.285Z,100738.61
2023-01-19T10:46:06.158Z,100733.01
2023-01-19T10:48:40.197Z,100734.29
2023-01-19T10:51:08.816Z,100725.60
2023-01-19T10:53:36.349Z,100718.96
2023-01-19T10:56:14.994Z,100713.78
2023-01-19T10:58:42.064Z,100713.09
2023-01-19T11:01:27.394Z,100711.46
2023-01-19T11:03:57.377Z,100714.48
2023-01-19T11:06:29.788Z,100713.15
2023-01-19T11:09:17.201Z,100708.87
2023-01-19T11:11:55.898Z,100704.64
2023-01-19T11:14:25.416Z,100703.21
2023-01-19T11:16:55.832Z,100695.54
2023-01-19T11:19:29.451Z,100686.02
2023-01-19T11:22:28.851Z,100678.98
2023-01-19T11:25:05.149Z,100665.66
2023-01-19T11:27:36.808Z,100649.17
2023-01-19T11:30:10.035Z,100645.84
2023-01-19T11:32:37.638Z,100648.04
2023-01-19T11:35:39.701Z,100651.25
2023-01-19T11:38:21.224Z,100649.79
2023-01-19T11:40:56.452Z,100648.52
2023-01-19T11:43:25.450Z,100646.32
2023-01-19T11:45:52.910Z,100644.62
2023-01-19T11:48:39.448Z,100643.88
2023-01-19T11:51:14.183Z,100650.85
2023-01-19T11:53:45.726Z,100675.29
2023-01-19T11:56:14.929Z,100677.67
2023-01-19T11:58:47.923Z,100670.58
2023-01-19T12:01:14.958Z,100661.02
2023-01-19T12:03:55.413Z,100653.09
2023-01-19T12:06:45.106Z,100645.31
2023-01-19T12:09:19.637Z,100640.50
2023-01-19T12:11:55.793Z,100633.89
2023-01-19T12:14:58.275Z,100627.60
2023-01-19T12:17:34.403Z,100613.90
2023-01-19T12:20:13.248Z,100611.46
2023-01-19T12:22:50.885Z,100616.11
2023-01-19T12:25:25.034Z,100615.39
2023-01-19T12:27:53.372Z,100622.58
2023-01-19T12:30:29.572Z,100622.52
2023-01-19T12:33:39.250Z,100614.62
2023-01-19T12:36:30.940Z,100616.36
2023-01-19T12:39:17.269Z,100624.07
2023-01-19T12:41:46.443Z,100617.48
2023-01-19T12:44:16.619Z,100614.05
2023-01-19T12:46:43.605Z,100609.09
2023-01-19T12:50:06.010Z,100607.69
2023-01-19T12:52:34.936Z,100604.40
2023-01-19T12:55:14.138Z,100601.88
2023-01-19T12:57:59.246Z,100611.45
2023-01-19T13:00:26.132Z,100614.34
2023-01-19T13:02:54.191Z,100620.42
2023-01-19T13:05:33.609Z,100626.61
2023-01-19T13:08:05.047Z,100631.16
2023-01-19T13:10:50.815Z,100630.85
2023-01-19T13:13:20.330Z,100623.77
2023-01-19T13:15:47.605Z,100636.48
2023-01-19T13:18:22.665Z,100645.54
2023-01-19T13:20:55.954Z,100665.47
2023-01-19T13:23:25.004Z,100696.71
2023-01-19T13:26:01.044Z,100730.55
2023-01-19T13:28:36.276Z,100721.34
2023-01-19T13:31:05.191Z,100711.40
2023-01-19T13:33:40.977Z,100704.05
2023-01-19T13:36:32.547Z,100705.89
2023-01-19T13:39:22.017Z,100714.56
2023-01-19T13:41:50.686Z,100718.69
2023-01-19T13:44:27.871Z,100725.72
2023-01-19T13:46:56.677Z,100739.52
2023-01-19T13:49:39.361Z,100747.87
2023-01-19T13:52:13.037Z,100726.09
2023-01-19T13:54:53.468Z,100721.23
2023-01-19T13:57:28.527Z,100697.97
2023-01-19T14:00:03.588Z,100681.80
2023-01-19T14:02:59.615Z,100662.08
2023-01-19T14:05:35.223Z,100629.00
2023-01-19T14:08:08.319Z,100645.91
2023-01-19T14:10:37.420Z,100661.65
2023-01-19T14:13:26.416Z,100649.77
2023-01-19T14:15:57.295Z,100647.75
2023-01-19T14:18:32.648Z,100649.02
2023-01-19T14:21:07.766Z,100654.78
2023-01-19T14:23:58.054Z,100660.06
2023-01-19T14:26:46.796Z,100646.59
2023-01-19T14:29:15.650Z,100647.75
2023-01-19T14:32:05.363Z,100667.58
2023-01-19T14:34:44.985Z,100658.85
2023-01-19T14:37:27.344Z,100657.91
2023-01-19T14:40:18.758Z,100657.33
2023-01-19T14:43:03.421Z,100654.48
2023-01-19T14:45:36.337Z,100648.86
2023-01-19T14:48:07.102Z,100647.59
2023-01-19T14:50:41.469Z,100646.27
2023-01-19T14:53:26.585Z,100636.48
2023-01-19T14:56:04.783Z,100633.59
2023-01-19T14:58:35.375Z,100638.73
2023-01-19T15:01:03.166Z,100639.94
2023-01-19T15:03:44.376Z,100647.29
2023-01-19T15:06:18.790Z,100646.73
2023-01-19T15:08:57.601Z,100641.93
2023-01-19T15:11:34.276Z,100644.26
2023-01-19T15:14:02.262Z,100646.95
2023-01-19T15:16:32.094Z,100645.00
2023-01-19T15:18:59.202Z,100639.50
2023-01-19T15:21:29.203Z,100640.34
2023-01-19T15:23:56.410Z,100636.23
2023-01-19T15:26:25.553Z,100636.91
2023-01-19T15:28:53.004Z,100637.24
2023-01-19T15:31:22.803Z,100637.66
2023-01-19T15:33:50.204Z,100636.87
2023-01-19T15:36:19.960Z,100636.44
2023-01-19T15:38:47.763Z,100638.66
2023-01-19T15:41:18.384Z,100639.98
2023-01-19T15:43:45.464Z,100643.00
2023-01-19T15:46:16.093Z,100646.97
2023-01-19T15:48:43.096Z,100649.45
2023-01-19T15:51:19.032Z,100650.23
2023-01-19T15:53:46.575Z,100642.46
2023-01-19T15:56:26.792Z,100640.83
2023-01-19T15:58:54.224Z,100634.91
2023-01-19T16:01:31.586Z,100640.41
2023-01-19T16:04:01.625Z,100640.79
2023-01-19T16:06:30.617Z,100637.02
2023-01-19T16:09:01.332Z,100637.89
2023-01-19T16:11:31.021Z,100654.52
2023-01-19T16:13:58.920Z,100680.05
2023-01-19T16:16:28.222Z,100691.52
2023-01-19T16:18:56.162Z,100689.14
2023-01-19T16:21:24.062Z,100694.27
2023-01-19T16:23:51.467Z,100697.17
2023-01-19T16:26:26.794Z,100703.14
2023-01-19T16:28:57.310Z,100707.74
2023-01-19T16:31:24.503Z,100714.25
2023-01-19T16:33:51.567Z,100723.23
2023-01-19T16:36:29.281Z,100723.40
2023-01-19T16:39:00.726Z,100738.52
2023-01-19T16:41:28.085Z,100738.89
2023-01-19T16:43:57.013Z,100742.21
2023-01-19T16:46:30.125Z,100754.37
2023-01-19T16:49:02.783Z,100765.89
2023-01-19T16:51:30.574Z,100762.12
2023-01-19T16:53:57.896Z,100760.75
2023-01-19T16:56:28.305Z,100764.12
2023-01-19T16:58:56.588Z,100773.50
2023-01-19T17:01:25.901Z,100776.43
2023-01-19T17:03:53.175Z,100780.23
2023-01-19T17:06:25.487Z,100778.64
2023-01-19T17:08:53.182Z,100779.69
2023-01-19T17:11:25.156Z,100781.84
2023-01-19T17:14:01.329Z,100776.93
2023-01-19T17:16:33.060Z,100774.45
2023-01-19T17:19:06.760Z,100771.07
2023-01-19T17:21:36.977Z,100773.13
2023-01-19T17:24:04.736Z,100771.73
2023-01-19T17:26:33.028Z,100773.02
2023-01-19T17:29:02.065Z,100770.41
2023-01-19T17:31:31.206Z,100772.83
2023-01-19T17:34:02.464Z,100774.00
2023-01-19T17:36:34.418Z,100776.85
2023-01-19T17:39:07.927Z,100779.49
2023-01-19T17:41:36.185Z,100789.85
2023-01-19T17:44:06.589Z,100793.26
2023-01-19T17:46:40.013Z,100793.94
2023-01-19T17:49:12.039Z,100794.99
2023-01-19T17:51:40.761Z,100796.32
2023-01-19T17:54:11.575Z,100799.80
2023-01-19T17:56:41.496Z,100796.73
2023-01-19T17:59:14.357Z,100801.02
2023-01-19T18:01:45.677Z,100804.50
2023-01-19T18:04:14.469Z,100807.50
2023-01-19T18:06:43.428Z,100812.62
2023-01-19T18:09:12.989Z,100818.27
2023-01-19T18:11:43.214Z,100822.29
2023-01-19T18:14:13.623Z,100821.80
2023-01-19T18:16:40.626Z,100820.48
2023-01-19T18:19:07.518Z,100818.69
2023-01-19T18:21:34.558Z,100814.46
2023-01-19T18:24:03.999Z,100821.50
2023-01-19T18:26:32.977Z,100822.55
2023-01-19T18:29:00.519Z,100828.05
2023-01-19T18:31:28.077Z,100827.96
2023-01-19T18:33:55.387Z,100826.06
2023-01-19T18:36:23.546Z,100825.42
2023-01-19T18:38:50.906Z,100825.29
2023-01-19T18:41:20.017Z,100824.81
2023-01-19T18:43:48.221Z,100823.85
2023-01-19T18:46:16.479Z,100824.07
2023-01-19T18:48:44.233Z,100823.65
2023-01-19T18:51:13.890Z,100824.96
2023-01-19T18:53:41.474Z,100823.34
2023-01-19T18:56:12.196Z,100826.55
2023-01-19T18:58:40.312Z,100830.52
2023-01-19T19:01:32.950Z,100830.15
2023-01-19T19:04:00.227Z,100832.05
2023-01-19T19:06:27.923Z,100839.14
2023-01-19T19:08:57.169Z,100847.75
2023-01-19T19:11:25.592Z,100848.69
2023-01-19T19:13:54.141Z,100852.13
2023-01-19T19:16:21.309Z,100856.35
2023-01-19T19:18:51.598Z,100859.85
2023-01-19T19:21:20.599Z,100859.10
2023-01-19T19:23:53.028Z,100863.11
2023-01-19T19:26:20.163Z,100860.83
2023-01-19T19:28:47.677Z,100866.06
2023-01-19T19:31:20.834Z,100869.44
2023-01-19T19:33:51.190Z,100872.27
2023-01-19T19:36:21.067Z,100873.33
2023-01-19T19:38:50.273Z,100872.75
2023-01-19T19:41:22.420Z,100875.75
2023-01-19T19:43:50.333Z,100882.80
2023-01-19T19:46:22.030Z,100884.02
2023-01-19T19:48:49.588Z,100887.67
2023-01-19T19:51:27.332Z,100890.10
2023-01-19T19:53:56.441Z,100896.96
2023-01-19T19:56:25.043Z,100917.41
2023-01-19T19:58:55.134Z,100944.36
2023-01-19T20:01:27.627Z,100974.04
2023-01-19T20:04:00.122Z,100968.43
2023-01-19T20:06:27.835Z,100963.94
2023-01-19T20:08:56.545Z,100973.09
2023-01-19T20:11:27.169Z,100989.30
2023-01-19T20:13:55.563Z,101000.20
2023-01-19T20:16:23.781Z,101009.24
2023-01-19T20:18:54.415Z,101020.17
2023-01-19T20:21:30.608Z,101015.84
2023-01-19T20:39:53.159Z,100993.78
2023-01-19T20:42:20.417Z,100990.49
2023-01-19T20:44:47.664Z,100987.45
2023-01-19T20:47:14.811Z,100989.36
2023-01-19T20:49:42.257Z,100982.15
2023-01-19T20:52:09.326Z,100985.05
2023-01-19T20:54:36.483Z,100984.08
2023-01-19T20:57:03.596Z,100985.62
2023-01-19T20:59:30.900Z,100980.41
2023-01-19T21:01:58.033Z,100982.29
2023-01-19T21:04:25.385Z,100982.63
2023-01-19T21:06:52.522Z,100976.38
2023-01-19T21:09:19.897Z,100972.92
2023-01-19T21:11:47.173Z,100971.78
2023-01-19T21:14:15.121Z,100975.21
2023-01-19T21:16:42.941Z,100975.67
2023-01-19T21:19:10.428Z,100971.92
2023-01-19T21:21:38.221Z,100970.11
2023-01-19T21:24:05.952Z,100958.66
2023-01-19T21:26:33.824Z,100958.18
2023-01-19T21:29:02.951Z,100956.44
2023-01-19T21:31:30.519Z,100955.81
2023-01-19T21:34:02.340Z,100959.23
2023-01-19T21:36:29.387Z,100957.67
2023-01-19T21:39:01.054Z,100956.77
2023-01-19T21:41:30.510Z,100962.52
2023-01-19T21:43:58.836Z,100964.54
2023-01-19T21:46:29.676Z,100962.80
2023-01-19T21:49:02.550Z,100962.60
2023-01-19T21:51:33.702Z,100960.19
2023-01-19T21:54:02.125Z,100961.73
2023-01-19T21:56:30.694Z,100966.44
2023-01-19T21:59:03.709Z,100960.90
2023-01-19T22:01:33.513Z,100961.33
2023-01-19T22:04:01.346Z,100964.58
2023-01-19T22:06:29.274Z,100969.39
2023-01-19T22:08:58.166Z,100971.21
2023-01-19T22:11:27.654Z,100973.48
2023-01-19T22:14:01.398Z,100977.31
2023-01-19T22:16:30.821Z,100980.38
2023-01-19T22:19:02.569Z,100978.93
2023-01-19T22:21:36.348Z,100980.72
2023-01-19T22:24:05.580Z,100982.33
2023-01-19T22:26:34.540Z,100978.48
2023-01-19T22:29:02.687Z,100978.42
2023-01-19T22:31:30.673Z,100976.10
2023-01-19T22:33:58.956Z,100974.09
2023-01-19T22:36:35.856Z,100977.11
2023-01-19T22:39:08.428Z,100969.92
2023-01-19T22:41:38.376Z,100968.34
2023-01-19T22:44:14.316Z,100963.25
2023-01-19T22:46:41.819Z,100963.67
2023-01-19T22:49:12.551Z,100966.58
2023-01-19T22:51:39.708Z,100968.67
2023-01-19T22:54:07.569Z,100963.79
2023-01-19T22:56:36.503Z,100961.58
2023-01-19T22:59:05.144Z,100958.44
2023-01-19T23:01:35.140Z,100957.95
2023-01-19T23:04:04.564Z,100950.35
2023-01-19T23:06:34.169Z,100945.64
2023-01-19T23:09:04.388Z,100941.35
2023-01-19T23:11:40.552Z,100945.35
2023-01-19T23:14:12.112Z,100947.95
2023-01-19T23:16:39.281Z,100948.11
2023-01-19T23:19:06.715Z,100948.11
2023-01-19T23:21:34.281Z,100954.29
2023-01-19T23:24:03.365Z,100948.73
2023-01-19T23:26:31.840Z,100952.48
2023-01-19T23:29:01.266Z,100959.55
2023-01-19T23:31:32.629Z,100958.23
2023-01-19T23:34:03.452Z,100956.16
2023-01-19T23:36:33.241Z,100952.68
2023-01-19T23:39:03.824Z,100948.14
2023-01-19T23:41:38.063Z,100950.00
2023-01-19T23:44:07.216Z,100948.15
2023-01-19T23:46:34.356Z,100950.30
2023-01-19T23:49:01.569Z,100956.08
2023-01-19T23:51:30.789Z,100953.97
2023-01-19T23:53:59.080Z,100949.95
2023-01-19T23:56:32.365Z,100947.89
2023-01-19T23:59:08.127Z,100956.06
